Time;durP1;ratioP1;P1;durP2;ratioP2;P2;SDS_P1;SDS_P2;PMS_P1;PMS_P2;Temp;Humidity;BMP_temperature;BMP_pressure;BME280_temperature;BME280_humidity;BME280_pressure;Samples;Min_cycle;Max_cycle;Signal;HPM_P1;HPM_P2
2023/07/20 00:02:02;;;;;;;0.43;0.20;;;;;;;;;;5035524;28;20061;-62
2023/07/20 00:04:28;;;;;;;0.30;0.10;;;;;;;;;;5035791;28;20045;-62
2023/07/20 00:06:54;;;;;;;0.20;0.20;;;;;;;;;;5041416;28;20485;-62
2023/07/20 00:09:21;;;;;;;0.50;0.30;;;;;;;;;;5035866;28;20037;-62
2023/07/20 00:11:51;;;;;;;1.27;0.30;;;;;;;;;;5036637;28;20064;-62
2023/07/20 00:14:17;;;;;;;0.20;0.20;;;;;;;;;;5036025;28;20048;-62
2023/07/20 00:16:44;;;;;;;0.20;0.20;;;;;;;;;;5035764;28;20041;-62
2023/07/20 00:19:10;;;;;;;0.38;0.20;;;;;;;;;;5035852;28;20045;-62
2023/07/20 00:21:37;;;;;;;0.20;0.20;;;;;;;;;;5038300;28;20041;-62
2023/07/20 00:24:03;;;;;;;0.20;0.20;;;;;;;;;;5038036;28;20444;-62
2023/07/20 00:26:29;;;;;;;0.20;0.20;;;;;;;;;;5034180;28;20072;-62
2023/07/20 00:28:55;;;;;;;0.28;0.20;;;;;;;;;;5033307;28;20061;-62
2023/07/20 00:31:21;;;;;;;0.10;0.10;;;;;;;;;;5034044;28;21027;-62
2023/07/20 00:33:48;;;;;;;0.35;0.20;;;;;;;;;;5033383;28;20041;-62
2023/07/20 00:36:14;;;;;;;0.20;0.20;;;;;;;;;;5035218;28;20147;-62
2023/07/20 00:38:40;;;;;;;0.35;0.35;;;;;;;;;;5037068;28;20646;-62
2023/07/20 00:41:07;;;;;;;0.55;0.40;;;;;;;;;;5037667;28;20045;-62
2023/07/20 00:43:33;;;;;;;1.00;0.30;;;;;;;;;;5035846;28;20136;-62
2023/07/20 00:45:59;;;;;;;0.30;0.22;;;;;;;;;;5032954;28;20112;-62
2023/07/20 00:48:25;;;;;;;0.20;0.20;;;;;;;;;;5033563;28;20068;-62
2023/07/20 00:50:51;;;;;;;0.13;0.13;;;;;;;;;;5033497;28;20571;-62
2023/07/20 00:53:18;;;;;;;0.28;0.20;;;;;;;;;;5035896;28;20128;-62
2023/07/20 00:55:44;;;;;;;0.80;0.30;;;;;;;;;;5036789;28;20052;-62
2023/07/20 00:58:11;;;;;;;0.45;0.30;;;;;;;;;;5033861;28;20045;-62
2023/07/20 01:00:37;;;;;;;0.30;0.30;;;;;;;;;;5038650;28;20048;-62
2023/07/20 01:03:03;;;;;;;0.10;0.10;;;;;;;;;;5036549;28;20406;-62
2023/07/20 01:05:55;;;;;;;0.55;0.47;;;;;;;;;;5036998;28;20537;-62
2023/07/20 01:08:29;;;;;;;0.20;0.20;;;;;;;;;;5038854;28;20226;-62
2023/07/20 01:10:59;;;;;;;0.40;0.40;;;;;;;;;;5035275;28;20045;-62
2023/07/20 01:13:26;;;;;;;0.20;0.20;;;;;;;;;;5033928;28;20122;-62
2023/07/20 01:16:01;;;;;;;0.30;0.30;;;;;;;;;;5032318;28;20506;-62
2023/07/20 01:18:27;;;;;;;0.20;0.20;;;;;;;;;;5034848;28;20087;-62
2023/07/20 01:21:10;;;;;;;0.20;0.20;;;;;;;;;;5037108;28;20417;-62
2023/07/20 01:23:51;;;;;;;0.22;0.20;;;;;;;;;;5033526;28;20033;-62
2023/07/20 01:26:33;;;;;;;0.20;0.20;;;;;;;;;;5035337;28;20041;-62
2023/07/20 01:29:11;;;;;;;0.30;0.30;;;;;;;;;;5034893;28;20622;-62
2023/07/20 01:31:38;;;;;;;0.30;0.30;;;;;;;;;;5036525;28;20056;-62
2023/07/20 01:34:06;;;;;;;0.20;0.20;;;;;;;;;;5030311;28;20939;-62
2023/07/20 01:36:34;;;;;;;0.20;0.20;;;;;;;;;;5033952;28;20045;-62
2023/07/20 01:39:02;;;;;;;0.30;0.30;;;;;;;;;;5037654;28;20037;-62
2023/07/20 01:41:28;;;;;;;0.20;0.20;;;;;;;;;;5034566;28;20052;-62
2023/07/20 01:43:58;;;;;;;0.30;0.30;;;;;;;;;;5033361;28;20037;-62
2023/07/20 01:46:24;;;;;;;0.45;0.20;;;;;;;;;;5034748;28;20060;-62
2023/07/20 01:48:50;;;;;;;0.20;0.20;;;;;;;;;;5036563;28;20524;-62
2023/07/20 01:51:17;;;;;;;0.20;0.20;;;;;;;;;;5033409;28;20041;-62
2023/07/20 01:53:44;;;;;;;0.22;0.20;;;;;;;;;;5034080;28;20049;-62
2023/07/20 01:56:12;;;;;;;0.30;0.20;;;;;;;;;;5032352;28;20097;-62
2023/07/20 01:58:38;;;;;;;0.20;0.20;;;;;;;;;;5037360;28;20591;-62
2023/07/20 02:01:04;;;;;;;0.20;0.20;;;;;;;;;;5032562;28;20139;-62
2023/07/20 02:03:30;;;;;;;0.30;0.30;;;;;;;;;;5036049;28;20588;-62
2023/07/20 02:05:56;;;;;;;0.22;0.22;;;;;;;;;;5032419;28;20049;-62
2023/07/20 02:08:23;;;;;;;0.30;0.30;;;;;;;;;;5031831;28;20046;-62
2023/07/20 02:10:49;;;;;;;0.20;0.20;;;;;;;;;;5034148;28;20037;-62
2023/07/20 02:13:16;;;;;;;0.38;0.38;;;;;;;;;;5036693;28;20049;-62
2023/07/20 02:15:47;;;;;;;0.15;0.15;;;;;;;;;;5034846;28;20071;-62
2023/07/20 02:18:13;;;;;;;0.22;0.20;;;;;;;;;;5032833;28;20041;-62
2023/07/20 02:20:40;;;;;;;0.10;0.10;;;;;;;;;;5031454;28;20047;-62
2023/07/20 02:23:06;;;;;;;0.30;0.30;;;;;;;;;;5036916;28;20406;-61
2023/07/20 02:25:33;;;;;;;0.30;0.30;;;;;;;;;;5034797;28;20422;-62
2023/07/20 02:27:59;;;;;;;0.22;0.22;;;;;;;;;;5042340;28;20514;-62
2023/07/20 02:30:25;;;;;;;0.30;0.30;;;;;;;;;;5036371;28;20039;-62
2023/07/20 02:32:51;;;;;;;0.47;0.32;;;;;;;;;;5035090;28;20041;-62
2023/07/20 02:35:17;;;;;;;0.20;0.20;;;;;;;;;;5035599;28;20060;-62
2023/07/20 02:37:43;;;;;;;0.40;0.30;;;;;;;;;;5039725;28;20037;-63
2023/07/20 02:40:09;;;;;;;0.20;0.20;;;;;;;;;;5040315;28;20036;-63
2023/07/20 02:42:35;;;;;;;0.43;0.43;;;;;;;;;;5035942;28;20041;-63
2023/07/20 02:45:04;;;;;;;0.20;0.20;;;;;;;;;;5037639;28;20045;-63
2023/07/20 02:47:30;;;;;;;0.28;0.28;;;;;;;;;;5038985;28;20075;-63
2023/07/20 02:49:57;;;;;;;0.85;0.20;;;;;;;;;;5033631;28;20104;-63
2023/07/20 02:52:24;;;;;;;0.30;0.30;;;;;;;;;;5035728;28;20049;-63
2023/07/20 02:54:50;;;;;;;0.20;0.20;;;;;;;;;;5042491;28;20049;-62
2023/07/20 02:57:16;;;;;;;0.20;0.20;;;;;;;;;;5038183;28;20055;-62
2023/07/20 02:59:42;;;;;;;1.75;0.30;;;;;;;;;;5035872;28;20044;-62
2023/07/20 03:02:09;;;;;;;0.20;0.20;;;;;;;;;;5036717;28;20556;-62
2023/07/20 03:04:36;;;;;;;0.30;0.30;;;;;;;;;;5037064;28;20064;-62
2023/07/20 03:07:03;;;;;;;0.20;0.20;;;;;;;;;;5035046;28;20061;-62
2023/07/20 03:09:29;;;;;;;0.30;0.30;;;;;;;;;;5032965;28;20037;-62
2023/07/20 03:11:55;;;;;;;0.43;0.25;;;;;;;;;;5037906;28;20065;-62
2023/07/20 03:14:21;;;;;;;0.30;0.20;;;;;;;;;;5035805;28;20411;-62
2023/07/20 03:16:47;;;;;;;0.20;0.20;;;;;;;;;;5037110;28;20071;-62
2023/07/20 03:19:13;;;;;;;0.20;0.20;;;;;;;;;;5031317;28;20079;-63
2023/07/20 03:21:40;;;;;;;0.30;0.30;;;;;;;;;;5039481;28;20037;-62
2023/07/20 03:24:08;;;;;;;0.30;0.30;;;;;;;;;;5037689;28;20144;-62
2023/07/20 03:26:34;;;;;;;0.32;0.32;;;;;;;;;;5036002;28;20041;-62
2023/07/20 03:29:00;;;;;;;0.38;0.30;;;;;;;;;;5033074;28;20158;-62
2023/07/20 03:31:26;;;;;;;0.20;0.20;;;;;;;;;;5037018;28;20120;-62
2023/07/20 03:33:52;;;;;;;0.43;0.30;;;;;;;;;;5037275;28;20048;-62
2023/07/20 03:36:18;;;;;;;0.90;0.28;;;;;;;;;;5040756;28;20056;-62
2023/07/20 03:38:44;;;;;;;0.20;0.20;;;;;;;;;;5037050;28;20060;-62
2023/07/20 03:41:11;;;;;;;0.25;0.25;;;;;;;;;;5036355;28;20045;-62
2023/07/20 03:43:37;;;;;;;0.40;0.20;;;;;;;;;;5037850;28;20060;-62
2023/07/20 03:46:06;;;;;;;0.30;0.30;;;;;;;;;;5037425;28;20051;-62
2023/07/20 03:48:33;;;;;;;0.20;0.20;;;;;;;;;;5036981;28;20119;-62
2023/07/20 03:51:00;;;;;;;0.28;0.20;;;;;;;;;;5036951;28;20045;-62
2023/07/20 03:53:26;;;;;;;0.10;0.10;;;;;;;;;;5036205;28;20412;-62
2023/07/20 03:55:52;;;;;;;0.20;0.20;;;;;;;;;;5040027;28;20493;-62
2023/07/20 03:58:19;;;;;;;0.22;0.22;;;;;;;;;;5036211;28;20040;-62
2023/07/20 04:00:52;;;;;;;0.10;0.10;;;;;;;;;;5036606;28;20043;-62
2023/07/20 04:03:18;;;;;;;0.20;0.20;;;;;;;;;;5033628;28;20408;-62
2023/07/20 04:05:45;;;;;;;0.20;0.20;;;;;;;;;;5037670;28;20614;-62
2023/07/20 04:08:11;;;;;;;0.20;0.20;;;;;;;;;;5039388;28;20047;-62
2023/07/20 04:10:37;;;;;;;0.20;0.20;;;;;;;;;;5038619;28;20037;-62
2023/07/20 04:13:04;;;;;;;0.20;0.20;;;;;;;;;;5038162;28;20412;-62
2023/07/20 04:15:30;;;;;;;0.40;0.30;;;;;;;;;;5040139;28;20934;-62
2023/07/20 04:17:56;;;;;;;0.20;0.20;;;;;;;;;;5037852;28;20510;-62
2023/07/20 04:20:23;;;;;;;0.15;0.15;;;;;;;;;;5034148;28;20471;-62
2023/07/20 04:22:49;;;;;;;0.20;0.20;;;;;;;;;;5035685;28;20029;-62
2023/07/20 04:25:15;;;;;;;0.30;0.30;;;;;;;;;;5036870;28;20045;-62
2023/07/20 04:27:41;;;;;;;0.13;0.10;;;;;;;;;;5039386;28;20063;-62
2023/07/20 04:30:09;;;;;;;0.20;0.20;;;;;;;;;;5031922;28;20045;-62
2023/07/20 04:32:35;;;;;;;0.10;0.10;;;;;;;;;;5034599;28;20068;-62
2023/07/20 04:35:01;;;;;;;0.10;0.10;;;;;;;;;;5037433;28;20069;-62
2023/07/20 04:37:27;;;;;;;0.20;0.20;;;;;;;;;;5034647;28;20622;-62
2023/07/20 04:39:53;;;;;;;0.65;0.40;;;;;;;;;;5034336;28;20186;-62
2023/07/20 04:42:20;;;;;;;0.10;0.10;;;;;;;;;;5036842;28;20107;-62
2023/07/20 04:44:46;;;;;;;0.50;0.20;;;;;;;;;;5037569;28;20504;-62
2023/07/20 04:47:12;;;;;;;0.10;0.10;;;;;;;;;;5037300;28;20148;-62
2023/07/20 04:49:39;;;;;;;0.60;0.30;;;;;;;;;;5037479;28;20033;-62
2023/07/20 04:52:05;;;;;;;0.22;0.20;;;;;;;;;;5033654;28;20081;-62
2023/07/20 04:54:31;;;;;;;0.10;0.10;;;;;;;;;;5037190;28;20080;-62
2023/07/20 04:56:57;;;;;;;0.60;0.20;;;;;;;;;;5037591;28;20382;-62
2023/07/20 04:59:23;;;;;;;0.10;0.10;;;;;;;;;;5032052;28;21840;-62
2023/07/20 05:01:49;;;;;;;0.10;0.10;;;;;;;;;;5039181;28;20095;-62
2023/07/20 05:04:15;;;;;;;1.63;0.25;;;;;;;;;;5035721;28;20505;-62
2023/07/20 05:06:41;;;;;;;0.10;0.10;;;;;;;;;;5034065;28;20127;-62
2023/07/20 05:09:07;;;;;;;0.20;0.20;;;;;;;;;;5034874;28;20079;-62
2023/07/20 05:11:33;;;;;;;0.20;0.10;;;;;;;;;;5031895;28;20045;-62
2023/07/20 05:14:00;;;;;;;0.10;0.10;;;;;;;;;;5032164;28;20053;-63
2023/07/20 05:16:26;;;;;;;0.20;0.20;;;;;;;;;;5035538;28;20038;-62
2023/07/20 05:18:52;;;;;;;0.10;0.10;;;;;;;;;;5036162;28;20042;-62
2023/07/20 05:21:18;;;;;;;0.10;0.10;;;;;;;;;;5031099;28;20049;-62
2023/07/20 05:23:45;;;;;;;0.13;0.10;;;;;;;;;;5034247;28;20042;-62
2023/07/20 05:26:11;;;;;;;0.52;0.20;;;;;;;;;;5033516;28;20073;-62
2023/07/20 05:28:37;;;;;;;0.05;0.05;;;;;;;;;;5036350;28;20041;-62
2023/07/20 05:31:03;;;;;;;0.10;0.10;;;;;;;;;;5035579;28;20060;-63
2023/07/20 05:33:29;;;;;;;0.10;0.10;;;;;;;;;;5036366;28;20045;-62
2023/07/20 05:35:55;;;;;;;0.10;0.10;;;;;;;;;;5037098;28;20540;-62
2023/07/20 05:38:21;;;;;;;0.15;0.10;;;;;;;;;;5035818;28;20067;-62
2023/07/20 05:40:47;;;;;;;0.17;0.17;;;;;;;;;;5034377;28;20044;-62
2023/07/20 05:43:14;;;;;;;0.85;0.10;;;;;;;;;;5029863;28;20640;-62
2023/07/20 05:45:44;;;;;;;0.10;0.10;;;;;;;;;;5034988;28;20051;-62
2023/07/20 05:48:11;;;;;;;0.00;0.00;;;;;;;;;;5035247;28;20060;-62
2023/07/20 05:50:37;;;;;;;0.10;0.10;;;;;;;;;;5033447;28;20072;-62
2023/07/20 05:53:03;;;;;;;0.00;0.00;;;;;;;;;;5034779;28;20045;-62
2023/07/20 05:55:29;;;;;;;0.00;0.00;;;;;;;;;;5026948;28;20049;-62
2023/07/20 05:57:56;;;;;;;0.77;0.10;;;;;;;;;;5034912;28;20046;-62
2023/07/20 06:00:26;;;;;;;0.08;0.08;;;;;;;;;;5036322;28;20037;-62
2023/07/20 06:02:53;;;;;;;0.00;0.00;;;;;;;;;;5032663;28;20688;-63
2023/07/20 06:05:21;;;;;;;0.00;0.00;;;;;;;;;;5032572;28;20098;-62
2023/07/20 06:07:47;;;;;;;0.08;0.08;;;;;;;;;;5032315;28;20124;-62
2023/07/20 06:10:13;;;;;;;0.03;0.03;;;;;;;;;;5033811;28;20068;-62
2023/07/20 06:12:39;;;;;;;0.10;0.00;;;;;;;;;;5030293;28;20054;-62
2023/07/20 06:15:06;;;;;;;0.10;0.10;;;;;;;;;;5032143;28;20508;-62
2023/07/20 06:17:32;;;;;;;0.00;0.00;;;;;;;;;;5034127;28;20044;-62
2023/07/20 06:19:58;;;;;;;0.08;0.08;;;;;;;;;;5035698;28;20049;-62
2023/07/20 06:22:24;;;;;;;0.00;0.00;;;;;;;;;;5030672;28;20037;-63
2023/07/20 06:24:50;;;;;;;0.00;0.00;;;;;;;;;;5036746;28;20678;-63
2023/07/20 06:27:16;;;;;;;0.95;0.08;;;;;;;;;;5031526;28;20120;-63
2023/07/20 06:29:42;;;;;;;0.00;0.00;;;;;;;;;;5032358;28;20271;-63
2023/07/20 06:32:08;;;;;;;0.00;0.00;;;;;;;;;;5035593;28;20041;-62
2023/07/20 06:34:38;;;;;;;0.08;0.08;;;;;;;;;;5034078;28;20041;-62
2023/07/20 06:37:04;;;;;;;0.00;0.00;;;;;;;;;;5028080;28;20045;-62
2023/07/20 06:39:30;;;;;;;0.05;0.05;;;;;;;;;;5032930;28;20116;-62
2023/07/20 06:41:56;;;;;;;1.25;0.00;;;;;;;;;;5034000;28;20190;-62
2023/07/20 06:44:23;;;;;;;0.10;0.10;;;;;;;;;;5031594;28;20548;-62
2023/07/20 06:46:48;;;;;;;0.10;0.00;;;;;;;;;;5030247;28;20041;-62
2023/07/20 06:49:27;;;;;;;0.70;0.20;;;;;;;;;;5029430;28;20034;-62
2023/07/20 06:51:53;;;;;;;0.10;0.10;;;;;;;;;;5036699;28;20049;-63
2023/07/20 06:54:19;;;;;;;0.10;0.10;;;;;;;;;;5034760;28;20045;-63
2023/07/20 06:56:45;;;;;;;0.15;0.10;;;;;;;;;;5035655;28;20041;-62
2023/07/20 06:59:11;;;;;;;0.10;0.10;;;;;;;;;;5029429;28;20077;-62
2023/07/20 07:01:37;;;;;;;0.20;0.10;;;;;;;;;;5034600;28;20545;-62
2023/07/20 07:04:05;;;;;;;0.85;0.30;;;;;;;;;;5035865;28;20064;-62
2023/07/20 07:06:31;;;;;;;0.32;0.32;;;;;;;;;;5027761;28;20086;-62
2023/07/20 07:08:57;;;;;;;0.32;0.32;;;;;;;;;;5036468;28;20095;-63
2023/07/20 07:11:23;;;;;;;0.82;0.50;;;;;;;;;;5032204;28;20186;-63
2023/07/20 07:13:51;;;;;;;0.70;0.60;;;;;;;;;;5038906;28;20053;-63
2023/07/20 07:16:18;;;;;;;0.85;0.63;;;;;;;;;;5037466;28;20048;-62
2023/07/20 07:18:45;;;;;;;0.63;0.50;;;;;;;;;;5032831;28;20490;-62
2023/07/20 07:21:11;;;;;;;0.55;0.45;;;;;;;;;;5038654;28;20033;-62
2023/07/20 07:23:38;;;;;;;0.52;0.35;;;;;;;;;;5037572;28;20048;-63
2023/07/20 07:26:04;;;;;;;0.55;0.55;;;;;;;;;;5037033;28;20045;-63
2023/07/20 07:28:31;;;;;;;1.00;0.70;;;;;;;;;;5036286;28;20038;-63
2023/07/20 07:30:57;;;;;;;0.93;0.50;;;;;;;;;;5032634;28;20048;-62
2023/07/20 07:33:23;;;;;;;0.93;0.63;;;;;;;;;;5034327;28;20045;-62
2023/07/20 07:35:51;;;;;;;1.02;0.90;;;;;;;;;;5036692;28;20178;-62
2023/07/20 07:38:17;;;;;;;0.60;0.50;;;;;;;;;;5037039;28;20048;-62
2023/07/20 07:40:43;;;;;;;0.55;0.40;;;;;;;;;;5035329;28;20053;-62
2023/07/20 07:43:09;;;;;;;0.50;0.50;;;;;;;;;;5039664;28;20060;-62
2023/07/20 07:45:37;;;;;;;2.15;0.50;;;;;;;;;;5033937;28;20098;-58
2023/07/20 07:48:03;;;;;;;0.22;0.22;;;;;;;;;;5045156;28;20049;-60
2023/07/20 07:50:30;;;;;;;0.63;0.40;;;;;;;;;;5046062;28;20182;-59
2023/07/20 07:52:56;;;;;;;0.57;0.40;;;;;;;;;;5046781;28;20045;-56
2023/07/20 07:55:22;;;;;;;0.63;0.32;;;;;;;;;;5041455;28;20041;-63
2023/07/20 07:57:48;;;;;;;0.47;0.47;;;;;;;;;;5036708;28;20037;-63
2023/07/20 08:00:14;;;;;;;0.30;0.30;;;;;;;;;;5047128;28;20606;-63
2023/07/20 08:02:43;;;;;;;0.20;0.20;;;;;;;;;;5040370;28;20037;-63
2023/07/20 08:05:10;;;;;;;0.20;0.20;;;;;;;;;;5032387;28;20402;-63
2023/07/20 08:07:37;;;;;;;0.30;0.20;;;;;;;;;;5035283;28;21018;-63
2023/07/20 08:10:03;;;;;;;0.10;0.10;;;;;;;;;;5035923;28;20045;-63
2023/07/20 08:12:29;;;;;;;0.30;0.25;;;;;;;;;;5034611;28;20049;-64
2023/07/20 08:14:55;;;;;;;0.15;0.10;;;;;;;;;;5034598;28;20536;-63
2023/07/20 08:17:21;;;;;;;0.10;0.10;;;;;;;;;;5037584;28;20057;-63
2023/07/20 08:19:47;;;;;;;0.10;0.10;;;;;;;;;;5043381;28;20053;-63
2023/07/20 08:22:13;;;;;;;0.17;0.17;;;;;;;;;;5037277;28;20049;-63
2023/07/20 08:24:40;;;;;;;0.35;0.13;;;;;;;;;;5044330;28;20041;-63
2023/07/20 08:27:07;;;;;;;0.55;0.20;;;;;;;;;;5030835;28;20116;-63
2023/07/20 08:29:33;;;;;;;0.65;0.10;;;;;;;;;;5026209;28;20421;-64
2023/07/20 08:31:59;;;;;;;0.10;0.10;;;;;;;;;;5039326;28;20044;-63
2023/07/20 08:34:25;;;;;;;0.10;0.10;;;;;;;;;;5042095;28;20040;-63
2023/07/20 08:36:51;;;;;;;0.40;0.13;;;;;;;;;;5045478;28;20146;-63
2023/07/20 08:39:17;;;;;;;0.10;0.10;;;;;;;;;;5037165;28;20041;-63
2023/07/20 08:41:44;;;;;;;0.10;0.10;;;;;;;;;;5046796;28;20127;-63
2023/07/20 08:44:10;;;;;;;0.30;0.20;;;;;;;;;;5044499;28;20056;-64
2023/07/20 08:46:38;;;;;;;0.20;0.20;;;;;;;;;;5041731;28;20041;-63
2023/07/20 08:49:04;;;;;;;0.10;0.10;;;;;;;;;;5041953;28;20511;-63
2023/07/20 08:51:31;;;;;;;0.40;0.30;;;;;;;;;;5044575;28;20059;-63
2023/07/20 08:53:57;;;;;;;0.10;0.10;;;;;;;;;;5039277;28;20091;-63
2023/07/20 08:56:25;;;;;;;0.52;0.20;;;;;;;;;;5044866;28;20047;-63
2023/07/20 08:58:52;;;;;;;0.10;0.10;;;;;;;;;;5037799;28;20036;-64
2023/07/20 09:01:18;;;;;;;0.20;0.20;;;;;;;;;;5038917;28;20849;-64
2023/07/20 09:03:46;;;;;;;0.10;0.10;;;;;;;;;;5041595;28;20072;-63
2023/07/20 09:06:12;;;;;;;0.20;0.20;;;;;;;;;;5040832;28;20147;-63
2023/07/20 09:08:39;;;;;;;0.20;0.10;;;;;;;;;;5042911;28;20047;-63
2023/07/20 09:11:05;;;;;;;0.32;0.10;;;;;;;;;;5043905;28;20036;-63
2023/07/20 09:13:32;;;;;;;0.13;0.10;;;;;;;;;;5038870;28;20951;-64
2023/07/20 09:15:58;;;;;;;0.20;0.20;;;;;;;;;;5032295;28;20131;-63
2023/07/20 09:18:25;;;;;;;0.52;0.28;;;;;;;;;;5037582;28;20040;-63
2023/07/20 09:20:51;;;;;;;0.35;0.20;;;;;;;;;;5035308;28;20045;-63
2023/07/20 09:23:18;;;;;;;0.20;0.10;;;;;;;;;;5034183;28;20126;-63
2023/07/20 09:25:45;;;;;;;0.22;0.22;;;;;;;;;;5039389;28;20037;-63
2023/07/20 09:28:12;;;;;;;0.20;0.17;;;;;;;;;;5034874;28;20045;-63
2023/07/20 09:30:37;;;;;;;0.32;0.20;;;;;;;;;;5040384;28;20033;-62
2023/07/20 09:33:04;;;;;;;0.10;0.10;;;;;;;;;;5037182;28;20099;-63
2023/07/20 09:35:30;;;;;;;0.52;0.10;;;;;;;;;;5034697;28;20038;-63
2023/07/20 09:37:58;;;;;;;0.50;0.30;;;;;;;;;;5038336;28;20053;-63
2023/07/20 09:40:25;;;;;;;0.17;0.17;;;;;;;;;;5038771;28;20041;-63
2023/07/20 09:42:53;;;;;;;0.88;0.30;;;;;;;;;;5035329;28;20095;-63
2023/07/20 09:45:19;;;;;;;0.30;0.30;;;;;;;;;;5038926;28;20029;-63
2023/07/20 09:47:45;;;;;;;0.10;0.10;;;;;;;;;;5039411;28;20033;-63
2023/07/20 09:50:11;;;;;;;0.57;0.30;;;;;;;;;;5036813;28;20041;-63
2023/07/20 09:52:43;;;;;;;0.35;0.15;;;;;;;;;;5035725;28;20063;-63
2023/07/20 09:55:11;;;;;;;0.20;0.20;;;;;;;;;;5040140;28;20076;-62
2023/07/20 09:57:37;;;;;;;0.63;0.28;;;;;;;;;;5040455;28;20045;-62
2023/07/20 10:00:11;;;;;;;0.03;0.03;;;;;;;;;;5043528;28;20163;-63
2023/07/20 10:02:41;;;;;;;0.22;0.20;;;;;;;;;;5037713;28;20051;-63
2023/07/20 10:05:09;;;;;;;0.32;0.17;;;;;;;;;;5037153;28;20138;-63
2023/07/20 10:07:36;;;;;;;1.20;0.40;;;;;;;;;;5035802;28;20041;-62
2023/07/20 10:10:03;;;;;;;0.30;0.28;;;;;;;;;;5041130;28;20048;-62
2023/07/20 10:12:31;;;;;;;0.20;0.20;;;;;;;;;;5040085;28;20436;-63
2023/07/20 10:15:08;;;;;;;1.95;0.50;;;;;;;;;;5037690;28;20573;-62
2023/07/20 10:17:34;;;;;;;0.30;0.10;;;;;;;;;;5036171;28;20056;-62
2023/07/20 10:20:02;;;;;;;1.40;0.40;;;;;;;;;;5033578;28;20079;-62
2023/07/20 10:22:31;;;;;;;0.10;0.10;;;;;;;;;;5036613;28;20071;-63
2023/07/20 10:24:59;;;;;;;0.28;0.25;;;;;;;;;;5042634;28;20123;-62
2023/07/20 10:27:25;;;;;;;0.20;0.20;;;;;;;;;;5030705;28;20044;-62
2023/07/20 10:29:53;;;;;;;0.40;0.20;;;;;;;;;;5031903;28;20041;-62
2023/07/20 10:32:20;;;;;;;0.35;0.13;;;;;;;;;;5037354;28;20060;-62
2023/07/20 10:34:52;;;;;;;1.70;0.30;;;;;;;;;;5033456;28;20037;-62
2023/07/20 10:37:37;;;;;;;0.70;0.10;;;;;;;;;;5038171;28;20037;-62
2023/07/20 10:40:22;;;;;;;0.20;0.20;;;;;;;;;;5034552;28;20119;-62
2023/07/20 10:42:48;;;;;;;0.40;0.30;;;;;;;;;;5039860;28;20076;-62
2023/07/20 10:45:14;;;;;;;0.47;0.30;;;;;;;;;;5043356;28;20044;-62
2023/07/20 10:47:46;;;;;;;0.25;0.20;;;;;;;;;;5046017;28;20052;-62
2023/07/20 10:50:13;;;;;;;0.30;0.28;;;;;;;;;;5043079;28;20037;-62
2023/07/20 10:52:41;;;;;;;0.10;0.10;;;;;;;;;;5045279;28;20072;-62
2023/07/20 10:55:12;;;;;;;0.20;0.20;;;;;;;;;;5044108;28;20516;-62
2023/07/20 10:57:38;;;;;;;0.32;0.17;;;;;;;;;;5044659;28;20048;-62
2023/07/20 11:00:12;;;;;;;0.98;0.50;;;;;;;;;;5045485;28;20033;-62
2023/07/20 11:02:48;;;;;;;0.63;0.30;;;;;;;;;;5037649;28;20100;-62
2023/07/20 11:05:34;;;;;;;0.35;0.25;;;;;;;;;;5036035;28;20409;-62
2023/07/20 11:08:00;;;;;;;0.63;0.30;;;;;;;;;;5040398;28;20047;-63
2023/07/20 11:10:26;;;;;;;0.50;0.22;;;;;;;;;;5039565;28;20132;-63
2023/07/20 11:13:10;;;;;;;1.27;0.20;;;;;;;;;;5039245;28;20118;-63
2023/07/20 11:15:55;;;;;;;0.38;0.20;;;;;;;;;;5032526;28;20395;-63
2023/07/20 11:18:21;;;;;;;1.55;0.20;;;;;;;;;;5027561;28;20139;-63
2023/07/20 11:20:50;;;;;;;0.60;0.30;;;;;;;;;;5028238;28;20076;-63
2023/07/20 11:23:17;;;;;;;0.80;0.20;;;;;;;;;;5028094;28;20052;-63
2023/07/20 11:25:43;;;;;;;0.82;0.30;;;;;;;;;;5028114;28;20045;-63
2023/07/20 11:28:10;;;;;;;0.20;0.20;;;;;;;;;;5028562;28;20500;-63
2023/07/20 11:30:37;;;;;;;0.65;0.30;;;;;;;;;;5028824;28;20052;-63
2023/07/20 11:33:03;;;;;;;1.35;0.30;;;;;;;;;;5026491;28;20634;-63
2023/07/20 11:35:29;;;;;;;0.40;0.30;;;;;;;;;;5025672;28;20077;-63
2023/07/20 11:37:56;;;;;;;0.52;0.32;;;;;;;;;;5027464;28;20041;-62
2023/07/20 11:40:24;;;;;;;0.10;0.10;;;;;;;;;;5026629;28;20079;-62
2023/07/20 11:42:50;;;;;;;0.25;0.25;;;;;;;;;;5027424;28;20060;-62
2023/07/20 11:45:17;;;;;;;0.20;0.20;;;;;;;;;;5027119;28;20490;-63
2023/07/20 11:47:43;;;;;;;1.23;0.45;;;;;;;;;;5027393;28;20516;-62
2023/07/20 11:50:10;;;;;;;0.63;0.40;;;;;;;;;;5028125;28;20038;-63
2023/07/20 11:52:37;;;;;;;0.47;0.20;;;;;;;;;;5027876;28;20464;-63
2023/07/20 11:55:03;;;;;;;0.38;0.20;;;;;;;;;;5027413;28;20046;-63
2023/07/20 11:57:29;;;;;;;0.75;0.30;;;;;;;;;;5027736;28;20465;-62
2023/07/20 12:00:00;;;;;;;0.20;0.10;;;;;;;;;;5028027;28;20033;-63
2023/07/20 12:02:30;;;;;;;0.88;0.32;;;;;;;;;;5027569;28;20603;-62
2023/07/20 12:04:57;;;;;;;1.75;0.35;;;;;;;;;;5027730;28;20368;-62
2023/07/20 12:07:23;;;;;;;0.30;0.13;;;;;;;;;;5026784;28;20498;-62
2023/07/20 12:10:05;;;;;;;0.50;0.20;;;;;;;;;;5027768;28;20045;-62
2023/07/20 12:12:32;;;;;;;0.15;0.13;;;;;;;;;;5027216;28;20057;-63
2023/07/20 12:15:13;;;;;;;0.10;0.10;;;;;;;;;;5027360;28;20053;-63
2023/07/20 12:17:42;;;;;;;0.28;0.13;;;;;;;;;;5028096;28;20057;-62
2023/07/20 12:20:09;;;;;;;0.10;0.10;;;;;;;;;;5027510;28;20574;-62
2023/07/20 12:22:39;;;;;;;0.17;0.17;;;;;;;;;;5027004;28;20048;-62
2023/07/20 12:25:09;;;;;;;0.10;0.10;;;;;;;;;;5027767;28;20052;-62
2023/07/20 12:27:37;;;;;;;0.10;0.00;;;;;;;;;;5027503;28;20120;-62
2023/07/20 12:30:05;;;;;;;0.10;0.10;;;;;;;;;;5026527;28;20719;-62
2023/07/20 12:32:31;;;;;;;0.20;0.20;;;;;;;;;;5026665;28;20450;-62
2023/07/20 12:34:57;;;;;;;0.10;0.10;;;;;;;;;;5026973;28;20787;-62
2023/07/20 12:37:23;;;;;;;0.95;0.10;;;;;;;;;;5025959;28;20136;-62
2023/07/20 12:39:49;;;;;;;0.20;0.20;;;;;;;;;;5027247;28;20033;-62
2023/07/20 12:42:16;;;;;;;0.20;0.10;;;;;;;;;;5026211;28;20088;-62
2023/07/20 12:44:42;;;;;;;0.10;0.10;;;;;;;;;;5027534;28;20045;-62
2023/07/20 12:47:08;;;;;;;0.90;0.10;;;;;;;;;;5027071;28;20049;-62
2023/07/20 12:49:34;;;;;;;0.20;0.20;;;;;;;;;;5026376;28;20643;-63
2023/07/20 12:52:00;;;;;;;0.43;0.10;;;;;;;;;;5026705;28;20807;-62
2023/07/20 12:54:26;;;;;;;0.10;0.10;;;;;;;;;;5026925;28;20044;-62
2023/07/20 12:56:52;;;;;;;0.10;0.10;;;;;;;;;;5026024;28;20041;-62
2023/07/20 12:59:18;;;;;;;0.38;0.22;;;;;;;;;;5026511;28;20091;-62
2023/07/20 13:01:45;;;;;;;0.00;0.00;;;;;;;;;;5027116;28;20099;-62
2023/07/20 13:04:11;;;;;;;0.10;0.10;;;;;;;;;;5025423;28;20047;-62
2023/07/20 13:06:37;;;;;;;0.10;0.10;;;;;;;;;;5026858;28;20504;-63
2023/07/20 13:09:04;;;;;;;0.38;0.10;;;;;;;;;;5027227;28;20514;-62
2023/07/20 13:11:30;;;;;;;0.73;0.17;;;;;;;;;;5025963;28;20750;-62
2023/07/20 13:13:56;;;;;;;0.10;0.10;;;;;;;;;;5026755;28;20041;-62
2023/07/20 13:16:22;;;;;;;0.10;0.10;;;;;;;;;;5026132;28;20091;-62
2023/07/20 13:18:48;;;;;;;0.10;0.10;;;;;;;;;;5025529;28;20053;-62
2023/07/20 13:21:14;;;;;;;0.10;0.10;;;;;;;;;;5025723;28;20099;-63
2023/07/20 13:23:40;;;;;;;0.10;0.10;;;;;;;;;;5026459;28;20116;-63
2023/07/20 13:26:08;;;;;;;0.38;0.13;;;;;;;;;;5025943;28;20041;-62
2023/07/20 13:28:34;;;;;;;0.52;0.30;;;;;;;;;;5026364;28;20045;-62
2023/07/20 13:31:00;;;;;;;0.30;0.10;;;;;;;;;;5026150;28;20484;-63
2023/07/20 13:33:26;;;;;;;0.20;0.20;;;;;;;;;;5030755;28;20429;-63
2023/07/20 13:35:52;;;;;;;0.13;0.13;;;;;;;;;;5044894;28;20045;-63
2023/07/20 13:38:18;;;;;;;0.28;0.13;;;;;;;;;;5045375;28;20067;-63
2023/07/20 13:40:44;;;;;;;0.20;0.20;;;;;;;;;;5045244;28;20056;-62
2023/07/20 13:43:10;;;;;;;0.10;0.05;;;;;;;;;;5045679;28;20135;-62
2023/07/20 13:45:36;;;;;;;0.10;0.10;;;;;;;;;;5045517;28;20049;-62
2023/07/20 13:48:03;;;;;;;0.75;0.30;;;;;;;;;;5045579;28;20071;-62
2023/07/20 13:50:29;;;;;;;0.35;0.10;;;;;;;;;;5045407;28;20048;-62
2023/07/20 13:52:55;;;;;;;0.45;0.20;;;;;;;;;;5045115;28;20138;-62
2023/07/20 13:55:21;;;;;;;0.43;0.30;;;;;;;;;;5045380;28;20084;-63
2023/07/20 13:57:48;;;;;;;0.20;0.20;;;;;;;;;;5045884;28;20413;-63
2023/07/20 14:00:14;;;;;;;0.20;0.20;;;;;;;;;;5045067;28;20072;-62
2023/07/20 14:02:40;;;;;;;0.10;0.10;;;;;;;;;;5042714;28;20060;-62
2023/07/20 14:05:06;;;;;;;0.22;0.10;;;;;;;;;;5034295;28;20482;-62
2023/07/20 14:07:32;;;;;;;0.20;0.17;;;;;;;;;;5041004;28;20041;-62
2023/07/20 14:09:59;;;;;;;0.10;0.10;;;;;;;;;;5039746;28;20428;-63
2023/07/20 14:12:25;;;;;;;0.40;0.20;;;;;;;;;;5037839;28;20084;-63
2023/07/20 14:14:51;;;;;;;1.10;0.20;;;;;;;;;;5043168;28;20056;-63
2023/07/20 14:17:17;;;;;;;0.10;0.10;;;;;;;;;;5047567;28;20040;-62
2023/07/20 14:19:43;;;;;;;0.38;0.20;;;;;;;;;;5049624;28;20036;-62
2023/07/20 14:22:09;;;;;;;0.10;0.10;;;;;;;;;;5048542;28;20037;-63
2023/07/20 14:24:35;;;;;;;0.20;0.20;;;;;;;;;;5047136;28;20588;-62
2023/07/20 14:27:01;;;;;;;0.50;0.20;;;;;;;;;;5036396;28;20045;-63
2023/07/20 14:29:31;;;;;;;0.50;0.30;;;;;;;;;;5036079;28;20044;-62
2023/07/20 14:31:57;;;;;;;0.10;0.10;;;;;;;;;;5033732;28;20136;-62
2023/07/20 14:34:23;;;;;;;0.82;0.17;;;;;;;;;;5033310;28;20121;-62
2023/07/20 14:36:49;;;;;;;0.90;0.20;;;;;;;;;;5029154;28;20064;-62
2023/07/20 14:39:15;;;;;;;0.28;0.20;;;;;;;;;;5031603;28;20048;-62
2023/07/20 14:41:42;;;;;;;0.30;0.20;;;;;;;;;;5031346;28;20411;-63
2023/07/20 14:44:10;;;;;;;0.13;0.10;;;;;;;;;;5032482;28;20649;-62